Burnstad, North Dakota
Current Conditions -  °F | °C
As of 6:15 AM on Sunday 21 Dec 2014 (Local Time) from K7L2 Reporting Station
Broken Clouds Broken Clouds  
Wind Chill: 19°   Ceiling: 12000
Heat Index: 19°   Visibility: 10mi
Dew Point: 19°   Wind: 3mph
Humidity: 100%   Direction: 110°ESE
Pressure: 29.65"   Gusts: NA
Location:  46.2334°N, 99.6522°W
Report Text: K7L2 211215Z AUTO 11003KT 10SM FEW095 BKN120 M07/M07 A2965 RMK AO2
Loading
Personal Weather Stations






























Interactive Weather Map New forecast layout! Learn more

10-Day Weather Forecast

Advertisements
Track Severe Weather on mobile